This is the latest recevied weather packets stored in our database for station/object vk4vs. If no packets are shown the sender has not sent any weather packets the latest 10 day(s).
| Time | Temp. | Humidity | Pressure | Rain* | Wind** | Luminosity | Snow |
|---|---|---|---|---|---|---|---|
| 1778155253 | 6.67° C | 78% | 1017.1 hPa | 0 mm | - | - | - |
| 1778153453 | 7.22° C | 78% | 1017 hPa | 0 mm | - | - | - |
| 1778151654 | 7.78° C | 77% | 1016.8 hPa | 0 mm | - | - | - |
| 1778149853 | 8.89° C | 78% | 1015.8 hPa | 0 mm | - | - | - |
| 1778148053 | 9.44° C | 75% | 1015.3 hPa | 0 mm | - | - | - |
| 1778146253 | 10° C | 72% | 1015.6 hPa | 0 mm | - | - | - |
| 1778144454 | 10.56° C | 67% | 1015.4 hPa | 0 mm | - | - | - |
| 1778142654 | 11.11° C | 63% | 1015.1 hPa | 0 mm | - | - | - |
| 1778140853 | 11.67° C | 61% | 1014.9 hPa | 0 mm | - | - | - |
| 1778139054 | 12.22° C | 58% | 1014.9 hPa | 0 mm | - | - | - |
| 1778137254 | 13.33° C | 54% | 1014.6 hPa | 0 mm | - | - | - |
| 1778135453 | 14.44° C | 51% | 1014.4 hPa | 0 mm | - | - | - |
| 1778133654 | 15.56° C | 49% | 1014.4 hPa | 0 mm | - | - | - |
| 1778131853 | 16.11° C | 44% | 1014.4 hPa | 0 mm | - | - | - |
| 1778130053 | 16.67° C | 45% | 1014.5 hPa | 0 mm | - | - | - |
| 1778128253 | 17.22° C | 46% | 1014.6 hPa | 0 mm | - | - | - |
| 1778126453 | 17.22° C | 46% | 1014.4 hPa | 0 mm | - | - | - |
| 1778124653 | 16.67° C | 44% | 1014.6 hPa | 0 mm | - | - | - |
| 1778122854 | 16.67° C | 48% | 1014.9 hPa | 0 mm | - | - | - |
| 1778121054 | 17.22° C | 47% | 1015 hPa | 0 mm | - | - | - |
| 1778119254 | 16.11° C | 53% | 1015.4 hPa | 0 mm | - | - | - |
| 1778117453 | 16.67° C | 54% | 1015.7 hPa | 0 mm | - | - | - |
| 1778115653 | 16.67° C | 60% | 1016.3 hPa | 0 mm | - | - | - |
| 1778113854 | 16.11° C | 59% | 1016.5 hPa | 0 mm | - | - | - |
| 1778112053 | 16.11° C | 61% | 1016.6 hPa | 0 mm | - | - | - |
* Rain latest hour (hover to see other rain measurements)
** Current wind speed in m/s (hover to see current wind gust speed)